Time;durP1;ratioP1;P1;durP2;ratioP2;P2;SDS_P1;SDS_P2;PMS_P1;PMS_P2;Temp;Humidity;BMP_temperature;BMP_pressure;BME280_temperature;BME280_humidity;BME280_pressure;Samples;Min_cycle;Max_cycle;Signal;HPM_P1;HPM_P2
2022/06/20 00:00:15;;;;;;;5.35;1.55;;;13.60;92.20;;;;;;6224748;22;20033;-78
2022/06/20 00:02:49;;;;;;;11.98;1.85;;;13.50;92.30;;;;;;6250603;22;20004;-79
2022/06/20 00:05:24;;;;;;;11.63;2.58;;;13.50;92.60;;;;;;6224840;22;20299;-78
2022/06/20 00:07:54;;;;;;;6.38;1.75;;;13.50;92.80;;;;;;6225587;22;20003;-79
2022/06/20 00:10:25;;;;;;;8.63;1.80;;;13.40;92.50;;;;;;6225322;22;20095;-78
2022/06/20 00:13:03;;;;;;;10.45;1.73;;;13.40;92.60;;;;;;6225175;22;20029;-79
2022/06/20 00:15:37;;;;;;;6.22;1.77;;;13.40;92.50;;;;;;6250076;22;20066;-79
2022/06/20 00:18:07;;;;;;;10.70;1.83;;;13.30;92.80;;;;;;6225430;22;20157;-78
2022/06/20 00:20:33;;;;;;;7.03;1.48;;;13.30;92.90;;;;;;6225465;22;20318;-78
2022/06/20 00:23:01;;;;;;;8.10;2.28;;;13.20;92.50;;;;;;6225431;22;20011;-78
2022/06/20 00:25:30;;;;;;;10.10;1.70;;;13.20;92.50;;;;;;6225051;22;20138;-79
2022/06/20 00:27:59;;;;;;;5.20;1.65;;;13.20;92.70;;;;;;6225051;22;20026;-79
2022/06/20 00:30:25;;;;;;;6.32;1.50;;;13.20;92.90;;;;;;6225082;22;20020;-79
2022/06/20 00:33:00;;;;;;;7.57;2.20;;;13.10;92.80;;;;;;6224866;22;20062;-79
2022/06/20 00:35:28;;;;;;;6.72;1.70;;;13.10;93.00;;;;;;6224784;22;20492;-79
2022/06/20 00:37:57;;;;;;;15.43;1.50;;;13.10;93.20;;;;;;6250601;22;20073;-79
2022/06/20 00:40:43;;;;;;;7.20;1.80;;;13.10;93.30;;;;;;6225391;22;20008;-78
2022/06/20 00:43:25;;;;;;;8.43;1.83;;;13.00;93.30;;;;;;6250462;22;20012;-78
2022/06/20 00:45:54;;;;;;;8.82;2.30;;;13.00;93.50;;;;;;6250705;22;20069;-78
2022/06/20 00:48:31;;;;;;;9.80;2.08;;;13.00;93.50;;;;;;6250800;22;20015;-78
2022/06/20 00:51:04;;;;;;;10.63;2.10;;;13.00;93.50;;;;;;6226271;22;20049;-78
2022/06/20 00:53:42;;;;;;;9.90;1.75;;;13.00;93.60;;;;;;6224380;22;20461;-79
2022/06/20 00:56:29;;;;;;;12.80;2.22;;;12.90;93.70;;;;;;6225024;22;20567;-79
2022/06/20 00:59:02;;;;;;;8.30;1.73;;;12.90;94.00;;;;;;6225438;22;20422;-78
2022/06/20 01:01:44;;;;;;;12.52;1.95;;;12.90;93.80;;;;;;6225061;22;20046;-78
2022/06/20 01:04:31;;;;;;;10.32;2.10;;;12.80;94.40;;;;;;6224286;22;20098;-79
2022/06/20 01:07:00;;;;;;;7.93;2.00;;;12.90;94.00;;;;;;6228824;22;20008;-79
2022/06/20 01:09:31;;;;;;;5.45;2.15;;;12.70;93.70;;;;;;6253789;22;20003;-78
2022/06/20 01:12:02;;;;;;;7.45;2.10;;;12.70;94.30;;;;;;6265144;22;20094;-79
2022/06/20 01:14:35;;;;;;;7.40;1.90;;;12.60;94.10;;;;;;6200227;22;20066;-79
2022/06/20 01:17:06;;;;;;;9.13;2.38;;;12.60;93.80;;;;;;6225307;22;20426;-78
2022/06/20 01:20:04;;;;;;;10.70;2.53;;;12.60;93.80;;;;;;6224428;22;20426;-78
2022/06/20 01:22:36;;;;;;;11.75;2.42;;;12.50;94.20;;;;;;6226479;22;20004;-78
2022/06/20 01:25:46;;;;;;;9.95;2.88;;;12.50;94.00;;;;;;6226648;22;20003;-79
2022/06/20 01:28:33;;;;;;;13.20;2.65;;;12.50;94.30;;;;;;6239392;22;20015;-79
2022/06/20 01:30:59;;;;;;;11.07;2.53;;;12.40;94.20;;;;;;6253537;22;20058;-80
2022/06/20 01:33:31;;;;;;;11.25;2.05;;;12.40;94.20;;;;;;6253235;22;20008;-79
2022/06/20 01:38:46;;;;;;;9.48;2.88;;;12.40;94.30;;;;;;6249729;22;20007;-78
2022/06/20 01:44:00;;;;;;;14.18;2.58;;;12.30;94.50;;;;;;6249930;22;20012;-80
2022/06/20 01:46:29;;;;;;;9.80;2.50;;;12.20;94.40;;;;;;6223881;22;20019;-77
2022/06/20 01:48:59;;;;;;;17.00;3.78;;;12.20;94.50;;;;;;6224062;22;20114;-78
2022/06/20 01:51:50;;;;;;;10.90;2.53;;;12.20;94.60;;;;;;6250330;22;20047;-77
2022/06/20 01:54:20;;;;;;;10.55;2.88;;;12.20;94.60;;;;;;6224315;22;20007;-79
2022/06/20 01:56:48;;;;;;;11.35;3.22;;;12.10;94.90;;;;;;6224727;22;20011;-78
2022/06/20 01:59:26;;;;;;;13.20;2.97;;;12.10;94.90;;;;;;6224088;22;20007;-78
2022/06/20 02:01:58;;;;;;;11.82;2.70;;;12.10;95.10;;;;;;6224737;22;20026;-78
2022/06/20 02:04:27;;;;;;;12.75;3.10;;;12.10;95.10;;;;;;6224680;22;20007;-78
2022/06/20 02:06:54;;;;;;;12.07;2.92;;;12.20;95.30;;;;;;6224449;22;20427;-79
2022/06/20 02:09:22;;;;;;;13.13;3.10;;;12.20;95.30;;;;;;6249632;22;20017;-78
2022/06/20 02:11:50;;;;;;;11.02;3.47;;;12.20;95.20;;;;;;6224722;22;20054;-78
2022/06/20 02:14:22;;;;;;;11.27;3.53;;;12.30;95.00;;;;;;6224292;22;20004;-78
2022/06/20 02:16:55;;;;;;;12.18;2.78;;;12.30;94.90;;;;;;6224646;22;20207;-78
2022/06/20 02:19:31;;;;;;;11.10;2.97;;;12.20;95.00;;;;;;6224128;22;20015;-78
2022/06/20 02:22:07;;;;;;;11.05;3.17;;;12.20;94.90;;;;;;6223935;22;20055;-78
2022/06/20 02:24:43;;;;;;;9.25;2.80;;;12.20;95.10;;;;;;6224231;22;20066;-77
2022/06/20 02:27:28;;;;;;;16.10;3.30;;;12.20;95.00;;;;;;6234574;22;20021;-78
2022/06/20 02:29:57;;;;;;;9.68;3.03;;;12.10;95.50;;;;;;6252609;22;20030;-79
2022/06/20 02:32:29;;;;;;;14.77;3.15;;;12.00;95.30;;;;;;6228685;22;20008;-78
2022/06/20 02:35:01;;;;;;;8.82;3.08;;;11.90;95.20;;;;;;6224733;22;20012;-78
2022/06/20 02:37:29;;;;;;;8.63;3.05;;;11.90;95.30;;;;;;6224627;22;20035;-79
2022/06/20 02:40:08;;;;;;;16.13;3.40;;;11.90;95.60;;;;;;6224266;22;20529;-79
2022/06/20 02:42:56;;;;;;;8.13;3.05;;;11.80;95.40;;;;;;6224326;22;20430;-78
2022/06/20 02:45:28;;;;;;;12.52;3.20;;;11.80;95.60;;;;;;6202280;22;20058;-78
2022/06/20 02:48:02;;;;;;;12.60;3.40;;;11.80;95.90;;;;;;6224137;22;20052;-78
2022/06/20 02:50:32;;;;;;;14.60;3.63;;;11.80;95.90;;;;;;6249148;22;20031;-78
2022/06/20 02:53:08;;;;;;;10.05;3.47;;;11.70;95.80;;;;;;6249064;22;20008;-79
2022/06/20 02:55:37;;;;;;;11.37;3.47;;;11.70;96.40;;;;;;6224383;22;20007;-79
2022/06/20 02:58:25;;;;;;;15.43;3.63;;;11.60;96.10;;;;;;6223693;22;20293;-78
2022/06/20 03:01:46;;;;;;;11.82;3.88;;;11.60;96.30;;;;;;6224090;22;20014;-78
2022/06/20 03:04:15;;;;;;;12.02;3.72;;;11.60;96.30;;;;;;6205856;22;20030;-78
2022/06/20 03:06:47;;;;;;;11.85;3.50;;;11.50;96.10;;;;;;6223769;22;20018;-78
2022/06/20 03:09:21;;;;;;;11.68;4.00;;;11.50;96.10;;;;;;6248512;22;20461;-78
2022/06/20 03:11:53;;;;;;;9.85;3.45;;;11.50;96.10;;;;;;6223773;22;20007;-77
2022/06/20 03:14:23;;;;;;;10.98;3.33;;;11.50;96.10;;;;;;6224784;22;20003;-77
2022/06/20 03:16:54;;;;;;;11.32;3.92;;;11.40;96.00;;;;;;6251369;22;20141;-78
2022/06/20 03:19:31;;;;;;;10.20;3.92;;;11.50;96.30;;;;;;6225389;22;20010;-78
2022/06/20 03:22:02;;;;;;;15.45;4.28;;;11.60;96.40;;;;;;6226129;22;20003;-78
2022/06/20 03:24:30;;;;;;;10.98;3.72;;;11.60;96.50;;;;;;6226056;22;20015;-79
2022/06/20 03:26:58;;;;;;;12.05;4.15;;;11.40;96.40;;;;;;6226059;22;20066;-78
2022/06/20 03:29:28;;;;;;;15.18;4.30;;;11.40;96.30;;;;;;6225960;22;20019;-78
2022/06/20 03:31:54;;;;;;;13.35;3.97;;;11.40;96.80;;;;;;6226002;22;20011;-78
2022/06/20 03:34:21;;;;;;;11.65;3.97;;;11.40;96.70;;;;;;6226058;22;20031;-79
2022/06/20 03:36:48;;;;;;;12.20;4.50;;;11.40;96.70;;;;;;6226282;22;20008;-77
2022/06/20 03:39:19;;;;;;;11.45;4.03;;;11.40;96.70;;;;;;6226019;22;20292;-79
2022/06/20 03:41:46;;;;;;;10.27;3.70;;;11.30;96.60;;;;;;6237974;22;20008;-83
2022/06/20 03:44:24;;;;;;;13.82;5.63;;;11.30;96.60;;;;;;6253211;22;20533;-78
2022/06/20 03:47:21;;;;;;;15.45;4.10;;;11.40;96.60;;;;;;6225758;22;20091;-79
2022/06/20 03:50:07;;;;;;;9.90;3.78;;;11.30;97.20;;;;;;6225945;22;20019;-78
2022/06/20 03:53:03;;;;;;;12.38;4.00;;;11.30;96.80;;;;;;6224970;22;20326;-79
2022/06/20 03:55:31;;;;;;;11.45;4.03;;;11.30;96.90;;;;;;6225535;22;20098;-79
2022/06/20 03:58:17;;;;;;;13.05;4.65;;;11.30;96.70;;;;;;6250405;22;20012;-77
2022/06/20 04:00:50;;;;;;;15.00;4.97;;;11.30;96.90;;;;;;6224794;22;20426;-78
2022/06/20 04:03:49;;;;;;;19.75;5.30;;;11.30;96.50;;;;;;6223361;22;20019;-79
2022/06/20 04:06:45;;;;;;;13.20;4.32;;;11.40;96.90;;;;;;6249131;22;20333;-78
2022/06/20 04:12:36;;;;;;;15.63;4.43;;;11.50;96.80;;;;;;6250023;22;20065;-78
2022/06/20 04:15:16;;;;;;;14.02;4.18;;;11.60;96.70;;;;;;6250612;22;20008;-78
2022/06/20 04:21:02;;;;;;;15.38;5.13;;;12.00;96.50;;;;;;6250808;22;20073;-77
2022/06/20 04:23:39;;;;;;;13.95;4.22;;;12.20;96.50;;;;;;6224582;22;20011;-78
2022/06/20 04:26:04;;;;;;;;;;;12.30;96.20;;;;;;6225158;22;20270;-78
2022/06/20 04:28:41;;;;;;;12.80;4.13;;;12.50;95.80;;;;;;6249785;22;19903;-79
2022/06/20 04:31:12;;;;;;;15.07;4.60;;;12.50;95.80;;;;;;6243966;22;20016;-78
2022/06/20 04:34:04;;;;;;;11.85;3.95;;;12.60;95.90;;;;;;6223899;22;20354;-78
2022/06/20 04:36:43;;;;;;;14.75;4.50;;;12.80;95.90;;;;;;6158740;22;20004;-78
2022/06/20 04:39:26;;;;;;;12.77;4.03;;;12.90;95.80;;;;;;6224726;22;20007;-78
2022/06/20 04:42:06;;;;;;;14.85;4.15;;;13.00;95.90;;;;;;6224088;22;20008;-79
2022/06/20 04:44:49;;;;;;;12.00;4.07;;;13.20;95.90;;;;;;6224413;22;20008;-78
2022/06/20 04:48:15;;;;;;;13.85;4.30;;;13.30;95.90;;;;;;6250757;22;20012;-80
2022/06/20 04:50:57;;;;;;;14.23;4.28;;;13.50;95.70;;;;;;6075565;23;20381;-77
2022/06/20 04:53:38;;;;;;;12.00;4.47;;;13.70;95.40;;;;;;6100794;23;20014;-79
2022/06/20 04:56:12;;;;;;;14.32;4.07;;;14.00;95.10;;;;;;6181405;22;20008;-78
2022/06/20 04:58:55;;;;;;;12.38;3.72;;;14.10;94.70;;;;;;6259497;22;20067;-78
2022/06/20 05:01:30;;;;;;;16.17;3.80;;;14.30;94.30;;;;;;6252860;22;20004;-79
2022/06/20 05:04:23;;;;;;;16.00;3.92;;;14.50;94.30;;;;;;6253582;22;20031;-79
2022/06/20 05:06:54;;;;;;;18.02;3.92;;;14.60;93.70;;;;;;6209192;22;20424;-78
2022/06/20 05:09:38;;;;;;;15.07;4.43;;;14.70;93.70;;;;;;6225335;22;20377;-77
2022/06/20 05:12:26;;;;;;;11.50;3.58;;;14.70;93.30;;;;;;6224614;22;20453;-78
2022/06/20 05:15:13;;;;;;;15.20;3.90;;;14.80;93.20;;;;;;6250370;22;20038;-78
2022/06/20 05:17:47;;;;;;;13.25;3.53;;;14.70;92.90;;;;;;6225019;22;20326;-79
2022/06/20 05:20:34;;;;;;;15.43;3.70;;;14.70;92.90;;;;;;6225047;22;20426;-78
2022/06/20 05:23:11;;;;;;;14.10;3.70;;;14.80;92.80;;;;;;6224736;22;20003;-78
2022/06/20 05:25:38;;;;;;;8.27;3.40;;;14.90;92.70;;;;;;6224714;22;20295;-78
2022/06/20 05:28:11;;;;;;;19.30;3.60;;;14.90;92.60;;;;;;6224650;22;20015;-78
2022/06/20 05:30:48;;;;;;;13.30;3.97;;;15.00;92.20;;;;;;6249790;22;20149;-78
2022/06/20 05:33:22;;;;;;;;;;;15.10;92.30;;;;;;6224848;22;20434;-77
2022/06/20 05:36:00;;;;;;;11.75;3.60;;;15.30;91.70;;;;;;6224874;22;19966;-78
2022/06/20 05:38:44;;;;;;;16.13;3.88;;;15.40;91.70;;;;;;6224340;22;20007;-78
2022/06/20 05:41:16;;;;;;;18.38;3.50;;;15.50;91.40;;;;;;6224523;22;20010;-78
2022/06/20 05:43:48;;;;;;;11.50;3.35;;;15.60;90.80;;;;;;6234286;22;20012;-78
2022/06/20 05:46:21;;;;;;;12.07;3.58;;;15.60;91.00;;;;;;6242790;22;20425;-75
2022/06/20 05:49:19;;;;;;;13.27;3.10;;;15.60;90.90;;;;;;6225256;22;20022;-75
2022/06/20 05:51:48;;;;;;;21.08;3.63;;;15.60;90.70;;;;;;6220597;22;20053;-77
2022/06/20 05:54:42;;;;;;;;;;;;;;;;;;;;;
2022/06/20 05:57:47;;;;;;;;;;;;;;;;;;;;;
2022/06/20 06:00:23;;;;;;;13.85;4.95;;;16.30;90.20;;;;;;6249366;22;20003;-83
2022/06/20 06:02:58;;;;;;;20.63;3.50;;;16.50;89.60;;;;;;6224654;22;20433;-76
2022/06/20 06:05:46;;;;;;;16.25;3.72;;;16.70;87.80;;;;;;6224478;22;20314;-80
2022/06/20 06:08:27;;;;;;;15.25;3.20;;;16.90;88.10;;;;;;6151983;22;20061;-78
2022/06/20 06:11:15;;;;;;;15.00;3.58;;;17.00;86.40;;;;;;6249715;22;20050;-79
2022/06/20 06:13:50;;;;;;;12.05;3.10;;;17.30;86.50;;;;;;6249543;22;20097;-80
2022/06/20 06:16:46;;;;;;;15.77;3.63;;;17.60;86.40;;;;;;6224845;22;20012;-78
2022/06/20 06:19:36;;;;;;;14.50;3.22;;;17.90;85.10;;;;;;6249128;22;20047;-78
2022/06/20 06:22:37;;;;;;;13.23;2.97;;;18.10;82.30;;;;;;6249768;22;20050;-82
2022/06/20 06:25:18;;;;;;;16.20;3.08;;;18.20;81.90;;;;;;6224430;22;20110;-82
2022/06/20 06:32:14;;;;;;;13.32;3.00;;;18.10;82.60;;;;;;6123513;23;20037;-74
2022/06/20 06:35:35;;;;;;;12.55;3.30;;;18.00;83.50;;;;;;6182918;23;20322;-78
2022/06/20 06:38:05;;;;;;;13.00;3.00;;;18.00;83.30;;;;;;6193625;23;20526;-76
2022/06/20 06:40:41;;;;;;;15.75;3.10;;;18.00;83.90;;;;;;6193558;23;20094;-77
2022/06/20 06:43:29;;;;;;;12.65;3.22;;;18.20;83.50;;;;;;6219351;23;20353;-78
2022/06/20 06:45:58;;;;;;;;;;;18.30;82.60;;;;;;6219988;23;20009;-78
2022/06/20 06:48:50;;;;;;;9.27;2.08;;;18.40;80.70;;;;;;6219114;23;19907;-77
2022/06/20 06:51:32;;;;;;;11.07;2.25;;;18.40;77.80;;;;;;6221484;23;20015;-79
2022/06/20 06:54:11;;;;;;;7.88;1.80;;;18.50;78.10;;;;;;6221409;23;20015;-74
2022/06/20 06:56:57;;;;;;;11.38;2.25;;;18.60;78.90;;;;;;6221387;23;20015;-73
2022/06/20 06:59:27;;;;;;;13.05;2.30;;;18.50;77.90;;;;;;6220551;23;20016;-73
2022/06/20 07:01:57;;;;;;;8.10;2.13;;;18.40;79.30;;;;;;6197197;23;20008;-79
2022/06/20 07:05:00;;;;;;;8.77;1.95;;;18.40;78.90;;;;;;6231979;23;20008;-78
2022/06/20 07:07:34;;;;;;;12.20;1.80;;;18.50;78.90;;;;;;6198017;23;20012;-78
2022/06/20 07:10:00;;;;;;;11.38;2.00;;;18.50;78.30;;;;;;6194432;23;20016;-78
2022/06/20 07:12:40;;;;;;;12.88;1.90;;;18.70;78.80;;;;;;6194458;23;20008;-78
2022/06/20 07:15:16;;;;;;;5.93;1.80;;;18.80;78.60;;;;;;6221177;23;20330;-78
2022/06/20 07:17:45;;;;;;;;;;;18.90;75.20;;;;;;6222007;23;20019;-79
2022/06/20 07:20:12;;;;;;;8.35;2.00;;;19.10;76.50;;;;;;6195532;23;20321;-78
2022/06/20 07:22:41;;;;;;;6.82;2.05;;;19.20;76.50;;;;;;6196455;23;20008;-80
2022/06/20 07:25:17;;;;;;;9.48;2.00;;;19.30;75.60;;;;;;6221528;23;20008;-78
2022/06/20 07:27:49;;;;;;;10.88;2.50;;;19.50;74.00;;;;;;6196275;23;20016;-79
2022/06/20 07:30:29;;;;;;;8.63;2.22;;;19.30;73.90;;;;;;6201051;23;20019;-78
2022/06/20 07:33:06;;;;;;;9.45;1.95;;;19.20;74.40;;;;;;6246429;23;20335;-78
2022/06/20 07:35:36;;;;;;;6.25;2.17;;;19.30;74.70;;;;;;6221107;23;20024;-80
2022/06/20 07:38:12;;;;;;;10.05;2.15;;;19.50;72.60;;;;;;6246543;23;20008;-79
2022/06/20 07:40:42;;;;;;;7.88;2.70;;;19.40;74.60;;;;;;6220925;23;20012;-78
2022/06/20 07:43:19;;;;;;;9.50;2.15;;;19.70;74.50;;;;;;6246525;23;20338;-80
2022/06/20 07:45:48;;;;;;;8.65;2.35;;;19.60;73.80;;;;;;6221145;23;20304;-78
2022/06/20 07:48:33;;;;;;;8.68;2.13;;;19.70;74.00;;;;;;6245939;23;20423;-77
2022/06/20 07:51:13;;;;;;;11.95;2.47;;;19.70;73.00;;;;;;6246374;23;20012;-79
2022/06/20 07:53:44;;;;;;;8.93;2.03;;;19.70;72.70;;;;;;6246201;23;20012;-77
2022/06/20 07:56:17;;;;;;;11.98;2.28;;;19.70;73.80;;;;;;6220479;23;20043;-79
2022/06/20 07:58:52;;;;;;;11.90;2.25;;;19.80;73.60;;;;;;6220049;23;20016;-78
2022/06/20 08:01:28;;;;;;;9.77;2.20;;;20.00;74.20;;;;;;6245798;23;20026;-78
2022/06/20 08:04:03;;;;;;;9.93;2.17;;;20.20;74.30;;;;;;6246340;23;20020;-78
2022/06/20 08:06:38;;;;;;;8.25;1.95;;;20.50;73.60;;;;;;6220973;23;20019;-78
2022/06/20 08:09:16;;;;;;;9.40;2.35;;;20.10;70.80;;;;;;6220563;23;20023;-80
2022/06/20 08:11:58;;;;;;;8.60;2.10;;;19.90;71.80;;;;;;6245793;23;20019;-77
2022/06/20 08:14:46;;;;;;;11.05;2.08;;;20.10;72.70;;;;;;6246212;23;20008;-79
2022/06/20 08:17:12;;;;;;;9.30;2.22;;;20.10;71.70;;;;;;6219975;23;20042;-79
2022/06/20 08:19:42;;;;;;;6.93;2.20;;;20.10;72.30;;;;;;6245749;23;20012;-78
2022/06/20 08:22:20;;;;;;;13.45;2.10;;;19.90;72.40;;;;;;6246198;23;20012;-81
2022/06/20 08:24:55;;;;;;;10.57;2.30;;;20.20;72.90;;;;;;6225017;22;20095;-77
2022/06/20 08:27:32;;;;;;;9.23;1.95;;;20.30;71.30;;;;;;6230178;23;20308;-77
2022/06/20 08:30:09;;;;;;;10.32;2.10;;;20.50;70.20;;;;;;6246640;23;20016;-78
2022/06/20 08:33:07;;;;;;;8.30;2.00;;;20.40;71.10;;;;;;6245845;23;20004;-78
2022/06/20 08:35:43;;;;;;;9.32;1.90;;;20.20;70.90;;;;;;6221779;22;20043;-77
2022/06/20 08:38:15;;;;;;;;;;;20.20;72.50;;;;;;6220230;23;20083;-77
2022/06/20 08:40:56;;;;;;;11.57;2.42;;;20.20;71.50;;;;;;6245888;23;19983;-78
2022/06/20 08:43:40;;;;;;;7.72;1.92;;;20.00;72.70;;;;;;6220590;23;20012;-78
2022/06/20 08:46:27;;;;;;;10.35;2.08;;;20.10;72.90;;;;;;6245845;22;20008;-78
2022/06/20 08:49:05;;;;;;;9.25;1.73;;;19.90;69.90;;;;;;6220098;23;20008;-80
2022/06/20 08:52:06;;;;;;;6.28;1.92;;;19.90;72.20;;;;;;6220477;23;20015;-78
2022/06/20 08:54:32;;;;;;;6.90;1.60;;;20.10;70.10;;;;;;6245642;23;20297;-79
2022/06/20 08:57:17;;;;;;;7.22;1.90;;;20.30;71.80;;;;;;6220227;23;20120;-76
2022/06/20 09:00:05;;;;;;;7.90;2.25;;;20.40;72.00;;;;;;6245219;23;20052;-76
2022/06/20 09:02:52;;;;;;;9.02;2.03;;;20.50;71.50;;;;;;6220094;23;20016;-77
2022/06/20 09:05:40;;;;;;;7.00;1.98;;;20.50;69.90;;;;;;6245761;22;20012;-76
2022/06/20 09:08:28;;;;;;;12.27;2.90;;;20.70;70.50;;;;;;6244578;23;20008;-78
2022/06/20 09:11:12;;;;;;;14.00;2.72;;;21.00;70.90;;;;;;6247044;23;20016;-79
2022/06/20 09:13:50;;;;;;;9.88;2.47;;;21.40;71.10;;;;;;6220131;23;20335;-76
2022/06/20 09:16:24;;;;;;;10.07;2.65;;;21.70;70.30;;;;;;6245392;22;20012;-77
2022/06/20 09:19:17;;;;;;;7.35;2.20;;;21.30;67.80;;;;;;6244979;23;20044;-77
2022/06/20 09:21:53;;;;;;;11.15;2.63;;;20.80;68.80;;;;;;6220289;23;20016;-76
2022/06/20 09:24:23;;;;;;;15.80;2.95;;;20.60;70.80;;;;;;6245481;23;20023;-76
2022/06/20 09:26:49;;;;;;;11.48;2.67;;;20.40;71.50;;;;;;6245309;22;20008;-77
2022/06/20 09:29:39;;;;;;;14.45;2.85;;;20.60;69.80;;;;;;6244962;23;20403;-77
2022/06/20 09:32:33;;;;;;;10.30;2.42;;;20.80;71.80;;;;;;6194758;23;20027;-78
2022/06/20 09:35:37;;;;;;;14.60;2.80;;;20.50;70.00;;;;;;6219478;22;20485;-77
2022/06/20 09:38:09;;;;;;;14.35;2.50;;;20.30;69.40;;;;;;6219027;23;20008;-78
2022/06/20 09:40:45;;;;;;;10.98;2.25;;;20.10;70.70;;;;;;6195069;23;20058;-78
2022/06/20 09:43:14;;;;;;;;;;;20.20;71.70;;;;;;6220139;23;20016;-79
2022/06/20 09:45:58;;;;;;;10.18;2.05;;;20.30;72.00;;;;;;6226477;23;19911;-77
2022/06/20 09:48:39;;;;;;;11.30;2.38;;;20.20;70.00;;;;;;6243080;23;20027;-77
2022/06/20 09:51:35;;;;;;;8.43;2.50;;;20.20;70.20;;;;;;6225310;23;20012;-78
2022/06/20 09:54:05;;;;;;;8.60;2.20;;;20.10;71.50;;;;;;6195061;23;20024;-76
2022/06/20 09:56:43;;;;;;;15.45;2.90;;;19.90;70.40;;;;;;6195769;23;20027;-77
2022/06/20 09:59:35;;;;;;;10.07;2.40;;;20.10;72.40;;;;;;6228992;23;20019;-75
2022/06/20 10:02:12;;;;;;;13.40;2.58;;;20.40;72.50;;;;;;6247766;23;20023;-75
2022/06/20 10:04:50;;;;;;;7.80;2.20;;;20.80;71.20;;;;;;6223301;22;20028;-79
2022/06/20 10:07:37;;;;;;;8.02;1.80;;;20.90;69.90;;;;;;6223552;23;20011;-77
2022/06/20 10:10:30;;;;;;;12.02;2.03;;;20.70;69.90;;;;;;6199787;23;20092;-80
2022/06/20 10:13:15;;;;;;;12.85;2.40;;;20.50;70.00;;;;;;6172672;23;20012;-78
2022/06/20 10:16:08;;;;;;;10.93;2.00;;;20.30;71.50;;;;;;6219869;23;20078;-78
2022/06/20 10:18:42;;;;;;;9.93;2.20;;;20.20;70.70;;;;;;6194559;23;20040;-78
2022/06/20 10:21:23;;;;;;;10.52;2.17;;;20.10;71.10;;;;;;6218861;23;20005;-77
2022/06/20 10:24:18;;;;;;;10.32;1.80;;;20.20;69.40;;;;;;6218643;23;20011;-75
2022/06/20 10:27:10;;;;;;;7.40;2.05;;;20.30;70.00;;;;;;6143459;23;20020;-78
2022/06/20 10:29:51;;;;;;;11.02;2.40;;;20.70;71.10;;;;;;6196623;22;20018;-79
2022/06/20 10:32:30;;;;;;;6.05;1.75;;;20.60;70.80;;;;;;6224639;22;20020;-81
2022/06/20 10:35:01;;;;;;;7.88;2.20;;;20.50;69.50;;;;;;6224200;22;20091;-80
2022/06/20 10:37:49;;;;;;;5.45;1.60;;;20.50;69.30;;;;;;6224493;22;20087;-77
2022/06/20 10:40:49;;;;;;;8.77;1.73;;;20.50;67.60;;;;;;6223175;22;20014;-77
2022/06/20 10:43:42;;;;;;;6.47;1.60;;;20.60;68.40;;;;;;6223724;22;20434;-76
2022/06/20 10:46:20;;;;;;;7.85;1.67;;;20.80;66.60;;;;;;6224726;22;20456;-79
2022/06/20 10:49:26;;;;;;;7.03;2.00;;;20.80;68.10;;;;;;6224610;22;20015;-77
2022/06/20 10:52:10;;;;;;;8.93;1.80;;;20.70;68.40;;;;;;6249114;22;20369;-77
2022/06/20 10:54:48;;;;;;;7.38;2.20;;;20.30;68.90;;;;;;6249442;22;20043;-77
2022/06/20 10:57:23;;;;;;;11.32;2.40;;;19.90;69.90;;;;;;6250111;22;20073;-76
2022/06/20 11:00:07;;;;;;;9.10;2.53;;;19.70;71.60;;;;;;6224444;22;20047;-77
2022/06/20 11:03:00;;;;;;;7.68;1.92;;;19.80;72.20;;;;;;6249689;22;20418;-76
2022/06/20 11:05:36;;;;;;;5.60;1.75;;;20.00;72.80;;;;;;6249525;22;20003;-77
2022/06/20 11:08:29;;;;;;;6.47;1.80;;;19.90;70.20;;;;;;6259239;22;20034;-77
2022/06/20 11:11:01;;;;;;;5.88;1.67;;;19.80;69.10;;;;;;6243985;22;20008;-76
2022/06/20 11:13:45;;;;;;;7.13;1.88;;;19.40;69.40;;;;;;6248844;22;20308;-78
2022/06/20 11:16:35;;;;;;;6.13;1.60;;;19.70;71.70;;;;;;6249451;22;20478;-76
2022/06/20 11:19:18;;;;;;;8.27;2.33;;;20.00;70.70;;;;;;6249592;22;20042;-80
2022/06/20 11:22:00;;;;;;;5.90;2.00;;;20.20;70.50;;;;;;6224133;22;20007;-77
2022/06/20 11:24:37;;;;;;;5.38;1.60;;;20.20;68.70;;;;;;6224236;22;20330;-78
2022/06/20 11:27:12;;;;;;;5.90;1.23;;;19.60;69.30;;;;;;6249448;22;20428;-76
2022/06/20 11:29:56;;;;;;;7.45;1.80;;;19.00;70.10;;;;;;6249236;22;20020;-78
2022/06/20 11:32:40;;;;;;;3.95;1.50;;;19.20;71.20;;;;;;6224421;22;20019;-75
2022/06/20 11:35:31;;;;;;;10.25;1.80;;;19.50;71.10;;;;;;6224998;22;20008;-76
2022/06/20 11:38:47;;;;;;;7.78;2.00;;;20.10;71.60;;;;;;6251533;22;20035;-79
2022/06/20 11:41:17;;;;;;;8.27;1.67;;;20.50;69.90;;;;;;6144431;22;20595;-77
2022/06/20 11:44:21;;;;;;;7.40;1.88;;;20.40;69.30;;;;;;6226464;22;20008;-77
2022/06/20 11:46:54;;;;;;;8.00;1.77;;;20.70;67.30;;;;;;6207225;22;20012;-77
2022/06/20 11:50:19;;;;;;;12.15;1.88;;;20.40;67.50;;;;;;6225830;22;20018;-76
2022/06/20 11:53:19;;;;;;;8.90;2.25;;;20.50;69.30;;;;;;6076130;23;20069;-76
2022/06/20 11:55:53;;;;;;;5.82;1.80;;;20.80;69.40;;;;;;6064980;23;20014;-76
2022/06/20 11:58:48;;;;;;;8.07;2.03;;;20.80;68.60;;;;;;6190206;22;20441;-75
2022/06/20 12:01:25;;;;;;;3.75;1.50;;;20.40;69.50;;;;;;6251019;22;20008;-76
2022/06/20 12:04:12;;;;;;;8.82;1.92;;;19.90;68.90;;;;;;6250837;22;20117;-76
2022/06/20 12:06:42;;;;;;;;;;;19.90;71.40;;;;;;6280759;22;20008;-76
2022/06/20 12:09:14;;;;;;;13.32;2.35;;;19.60;69.40;;;;;;6260809;22;19951;-80
2022/06/20 12:11:52;;;;;;;6.88;2.20;;;19.50;72.30;;;;;;6245137;22;20035;-76
2022/06/20 12:14:28;;;;;;;10.25;2.25;;;19.80;71.10;;;;;;6257711;22;20003;-76
2022/06/20 12:17:08;;;;;;;;;;;20.10;71.00;;;;;;6251300;22;20019;-76
2022/06/20 12:25:48;;;;;;;8.85;1.77;;;20.00;71.50;;;;;;6250073;22;20087;-78
2022/06/20 12:28:38;;;;;;;6.47;2.10;;;19.70;71.30;;;;;;6225716;22;20011;-76
2022/06/20 12:31:13;;;;;;;6.68;2.20;;;19.50;70.70;;;;;;6250830;22;20317;-76
2022/06/20 12:34:07;;;;;;;11.15;2.20;;;19.30;71.10;;;;;;6225483;22;20026;-76
2022/06/20 12:36:55;;;;;;;8.60;2.55;;;19.70;71.60;;;;;;6206828;22;20013;-78
2022/06/20 12:39:31;;;;;;;5.53;2.30;;;19.60;72.40;;;;;;6250818;22;20073;-77
2022/06/20 12:42:18;;;;;;;10.20;1.92;;;20.00;72.30;;;;;;6251211;22;20062;-76
2022/06/20 12:45:06;;;;;;;6.25;1.88;;;20.00;72.20;;;;;;6250888;22;20095;-77
2022/06/20 12:48:04;;;;;;;5.47;1.67;;;19.90;70.80;;;;;;6224381;22;20018;-78
2022/06/20 12:50:32;;;;;;;6.35;1.92;;;19.60;70.80;;;;;;6225416;22;20007;-77
2022/06/20 12:53:04;;;;;;;4.22;1.83;;;19.20;72.70;;;;;;6225343;22;20086;-77
2022/06/20 12:55:50;;;;;;;6.57;2.33;;;19.20;71.50;;;;;;6224949;22;20051;-74
2022/06/20 12:58:26;;;;;;;6.07;1.83;;;19.20;73.20;;;;;;6225349;22;20018;-76
2022/06/20 13:00:57;;;;;;;8.63;2.08;;;19.70;73.70;;;;;;6225226;22;20003;-75
2022/06/20 13:03:46;;;;;;;5.03;1.50;;;19.80;72.70;;;;;;6225499;22;20041;-77
2022/06/20 13:06:39;;;;;;;5.22;2.22;;;19.70;70.00;;;;;;6224232;22;20022;-76
2022/06/20 13:09:31;;;;;;;6.80;1.75;;;20.10;70.60;;;;;;6277794;22;20011;-79
2022/06/20 13:12:33;;;;;;;7.03;2.28;;;20.10;70.40;;;;;;6225113;22;20012;-76
2022/06/20 13:15:08;;;;;;;7.60;1.92;;;20.50;69.00;;;;;;6250274;22;20011;-78
2022/06/20 13:18:12;;;;;;;7.88;1.80;;;20.80;69.40;;;;;;6250526;22;20047;-77
2022/06/20 13:21:16;;;;;;;6.35;2.20;;;20.80;67.80;;;;;;6193102;22;20035;-75
2022/06/20 13:24:19;;;;;;;4.63;1.80;;;20.40;68.80;;;;;;6207306;22;20012;-77
2022/06/20 13:27:00;;;;;;;12.68;2.05;;;21.00;69.40;;;;;;6249816;22;20019;-76
2022/06/20 13:29:42;;;;;;;8.13;1.88;;;21.10;69.20;;;;;;6225061;22;20003;-78
2022/06/20 13:32:21;;;;;;;6.53;1.83;;;21.10;70.00;;;;;;6224806;22;20090;-78
2022/06/20 13:35:14;;;;;;;13.65;2.63;;;21.10;70.00;;;;;;6225297;22;20008;-76
2022/06/20 13:38:23;;;;;;;13.02;2.40;;;21.10;69.90;;;;;;6227923;22;20014;-76
2022/06/20 13:41:15;;;;;;;10.60;2.03;;;21.20;69.20;;;;;;6254101;22;20012;-76
2022/06/20 13:44:15;;;;;;;10.07;2.03;;;21.00;68.50;;;;;;6230829;22;20008;-77
2022/06/20 13:46:52;;;;;;;12.32;2.08;;;20.60;68.50;;;;;;6249478;22;20086;-77
2022/06/20 13:49:43;;;;;;;5.28;1.60;;;20.40;69.50;;;;;;6225304;22;20015;-77
2022/06/20 13:52:33;;;;;;;5.90;1.80;;;20.50;68.50;;;;;;6250495;22;20007;-78
2022/06/20 13:55:17;;;;;;;8.07;1.77;;;20.90;69.20;;;;;;6250169;22;20417;-77
2022/06/20 13:57:54;;;;;;;7.53;1.63;;;21.30;68.70;;;;;;6224787;22;20011;-78
2022/06/20 14:00:24;;;;;;;8.70;1.40;;;21.60;67.00;;;;;;6249864;22;20012;-79
2022/06/20 14:03:13;;;;;;;8.90;1.48;;;21.50;66.40;;;;;;6250300;22;20012;-78
2022/06/20 14:05:39;;;;;;;8.70;1.83;;;21.40;65.70;;;;;;6205255;22;20016;-75
2022/06/20 14:08:28;;;;;;;6.43;1.55;;;20.70;66.00;;;;;;6277373;22;20366;-76
2022/06/20 14:11:00;;;;;;;6.07;1.40;;;20.80;68.90;;;;;;6249743;22;20007;-79
2022/06/20 14:13:33;;;;;;;5.43;1.38;;;21.00;68.10;;;;;;6250020;22;20008;-79